Sardis, South Carolina
Current Conditions -  °F | °C
As of 6:53 PM on Friday 19 Dec 2014 (Local Time) from KFLO Reporting Station
Clear Clear  
Wind Chill: 49°   Ceiling: Unl
Heat Index: 49°   Visibility: 10mi
Dew Point: 35°   Wind: 0mph
Humidity: 59%   Direction: NA
Pressure: 30.15"   Gusts: NA
Location:  34.07°N, 79.933°W
Report Text: KFLO 192353Z 00000KT 10SM CLR 09/02 A3015 RMK AO2 SLP208 T00940017 10156 20083 53013
Loading
Personal Weather Stations






























Interactive Weather Map New forecast layout! Learn more

10-Day Weather Forecast

Advertisements
Track Severe Weather on mobile